createdAt,value
2017-03-04T00:01:04.328Z,52
2017-03-04T00:02:10.315Z,52
2017-03-04T00:03:16.296Z,52
2017-03-04T00:04:21.179Z,52
2017-03-04T00:05:27.164Z,52
2017-03-04T00:06:33.146Z,52
2017-03-04T00:07:39.133Z,52
2017-03-04T00:08:45.115Z,52
2017-03-04T00:09:51.102Z,52
2017-03-04T00:10:55.981Z,52
2017-03-04T00:12:00.866Z,52
2017-03-04T00:13:06.852Z,52
2017-03-04T00:14:12.841Z,52
2017-03-04T00:15:17.720Z,52
2017-03-04T00:16:23.703Z,52
2017-03-04T00:17:28.589Z,52
2017-03-04T00:18:33.465Z,52
2017-03-04T00:19:39.443Z,52
2017-03-04T00:20:44.767Z,52
2017-03-04T00:21:50.753Z,52
2017-03-04T00:22:56.738Z,52
2017-03-04T00:24:02.724Z,52
2017-03-04T00:25:08.706Z,52
2017-03-04T00:26:14.684Z,52
2017-03-04T00:27:20.670Z,52
2017-03-04T00:28:26.655Z,52
2017-03-04T00:29:32.639Z,52
2017-03-04T00:30:38.623Z,52
2017-03-04T00:31:44.609Z,52
2017-03-04T00:32:50.591Z,52
2017-03-04T00:33:56.576Z,52
2017-03-04T00:35:02.564Z,52
2017-03-04T00:36:08.547Z,52
2017-03-04T00:37:14.531Z,52
2017-03-04T00:38:20.509Z,52
2017-03-04T00:39:26.499Z,52
2017-03-04T00:40:31.382Z,52
2017-03-04T00:41:37.363Z,52
2017-03-04T00:42:43.348Z,52
2017-03-04T00:43:49.338Z,52
2017-03-04T00:44:55.323Z,52
2017-03-04T00:46:01.304Z,52
2017-03-04T00:47:06.629Z,52
2017-03-04T00:48:11.287Z,52
2017-03-04T00:49:17.272Z,52
2017-03-04T00:50:23.256Z,52
2017-03-04T00:51:29.239Z,52
2017-03-04T00:52:35.221Z,52
2017-03-04T00:53:41.205Z,52
2017-03-04T00:54:47.186Z,52
2017-03-04T00:55:53.173Z,52
2017-03-04T00:56:58.055Z,52
2017-03-04T00:58:03.374Z,52
2017-03-04T00:59:09.356Z,52
2017-03-04T01:00:15.343Z,52
2017-03-04T01:01:21.329Z,52
2017-03-04T01:02:27.313Z,52
2017-03-04T01:03:33.296Z,52
2017-03-04T01:04:39.284Z,52
2017-03-04T01:05:45.266Z,52
2017-03-04T01:06:51.249Z,52
2017-03-04T01:07:57.233Z,52
2017-03-04T01:09:02.116Z,52
2017-03-04T01:10:08.099Z,52
2017-03-04T01:11:14.085Z,52
2017-03-04T01:12:20.073Z,52
2017-03-04T01:13:26.057Z,52
2017-03-04T01:14:32.040Z,52
2017-03-04T01:15:38.027Z,52
2017-03-04T01:16:43.347Z,52
2017-03-04T01:17:49.330Z,52
2017-03-04T01:18:55.314Z,52
2017-03-04T01:20:01.300Z,52
2017-03-04T01:21:07.285Z,52
2017-03-04T01:22:13.273Z,52
2017-03-04T01:23:18.594Z,52
2017-03-04T01:24:24.576Z,52
2017-03-04T01:25:30.562Z,52
2017-03-04T01:26:36.545Z,52
2017-03-04T01:27:42.532Z,52
2017-03-04T01:28:48.514Z,52
2017-03-04T01:29:54.495Z,52
2017-03-04T01:31:00.484Z,52
2017-03-04T01:32:06.466Z,52
2017-03-04T01:33:12.456Z,52
2017-03-04T01:34:17.334Z,52
2017-03-04T01:35:23.315Z,52
2017-03-04T01:36:29.297Z,52
2017-03-04T01:37:35.286Z,52
2017-03-04T01:38:41.262Z,52
2017-03-04T01:39:47.250Z,52
2017-03-04T01:40:53.235Z,52
2017-03-04T01:41:59.224Z,52
2017-03-04T01:43:05.202Z,53
2017-03-04T01:44:11.185Z,53
2017-03-04T01:45:16.509Z,52
2017-03-04T01:46:22.492Z,54
2017-03-04T01:47:28.478Z,54
2017-03-04T01:48:34.463Z,54
2017-03-04T01:49:40.450Z,54
2017-03-04T01:50:46.429Z,54
2017-03-04T01:51:52.419Z,54
2017-03-04T01:52:58.401Z,54
2017-03-04T01:54:04.387Z,54
2017-03-04T01:55:10.366Z,54
2017-03-04T01:56:16.351Z,54
2017-03-04T01:57:21.667Z,54
2017-03-04T01:58:27.655Z,54
2017-03-04T01:59:32.978Z,54
2017-03-04T02:00:38.963Z,54
2017-03-04T02:01:44.942Z,54
2017-03-04T02:02:50.937Z,54
2017-03-04T02:03:56.921Z,54
2017-03-04T02:05:02.237Z,54
2017-03-04T02:06:08.217Z,54
2017-03-04T02:07:14.202Z,54
2017-03-04T02:08:19.094Z,54
2017-03-04T02:09:24.405Z,54
2017-03-04T02:10:30.387Z,54
2017-03-04T02:11:36.373Z,54
2017-03-04T02:12:41.257Z,54
2017-03-04T02:13:47.241Z,54
2017-03-04T02:14:53.231Z,54
2017-03-04T02:15:59.210Z,54
2017-03-04T02:17:05.194Z,54
2017-03-04T02:18:10.080Z,54
2017-03-04T02:19:16.069Z,54
2017-03-04T02:20:22.055Z,54
2017-03-04T02:21:28.036Z,54
2017-03-04T02:22:34.017Z,54
2017-03-04T02:23:39.337Z,54
2017-03-04T02:24:45.324Z,54
2017-03-04T02:25:51.305Z,54
2017-03-04T02:26:56.189Z,54
2017-03-04T02:28:02.176Z,54
2017-03-04T02:29:08.163Z,54
2017-03-04T02:30:14.143Z,54
2017-03-04T02:31:20.124Z,54
2017-03-04T02:32:26.109Z,54
2017-03-04T02:33:32.092Z,54
2017-03-04T02:34:38.079Z,54
2017-03-04T02:35:44.063Z,54
2017-03-04T02:36:49.382Z,54
2017-03-04T02:37:55.365Z,54
2017-03-04T02:39:01.350Z,54
2017-03-04T02:40:07.334Z,54
2017-03-04T02:41:13.317Z,54
2017-03-04T02:42:18.639Z,54
2017-03-04T02:43:23.961Z,54
2017-03-04T02:44:29.941Z,54
2017-03-04T02:45:35.264Z,54
2017-03-04T02:46:41.244Z,54
2017-03-04T02:47:47.230Z,54
2017-03-04T02:48:53.210Z,54
2017-03-04T02:49:59.196Z,54
2017-03-04T02:51:05.182Z,54
2017-03-04T02:52:11.166Z,54
2017-03-04T02:53:17.147Z,54
2017-03-04T02:54:23.131Z,54
2017-03-04T02:55:29.116Z,54
2017-03-04T02:56:35.100Z,54
2017-03-04T02:57:41.078Z,54
2017-03-04T02:58:46.399Z,54
2017-03-04T02:59:52.379Z,54
2017-03-04T03:00:57.268Z,54
2017-03-04T03:02:03.247Z,54
2017-03-04T03:03:09.232Z,54
2017-03-04T03:04:15.220Z,54
2017-03-04T03:05:19.876Z,54
2017-03-04T03:06:26.006Z,54
2017-03-04T03:07:31.992Z,54
2017-03-04T03:08:37.312Z,54
2017-03-04T03:09:43.302Z,54
2017-03-04T03:10:49.280Z,54
2017-03-04T03:11:55.268Z,54
2017-03-04T03:13:01.250Z,54
2017-03-04T03:14:07.228Z,54
2017-03-04T03:15:13.209Z,54
2017-03-04T03:16:19.197Z,54
2017-03-04T03:17:25.181Z,54
2017-03-04T03:18:31.160Z,54
2017-03-04T03:19:37.149Z,54
2017-03-04T03:20:43.134Z,54
2017-03-04T03:21:49.122Z,54
2017-03-04T03:22:55.102Z,54
2017-03-04T03:24:00.423Z,54
2017-03-04T03:25:06.404Z,54
2017-03-04T03:26:12.385Z,54
2017-03-04T03:27:18.369Z,54
2017-03-04T03:28:24.355Z,54
2017-03-04T03:29:30.339Z,54
2017-03-04T03:30:36.331Z,54
2017-03-04T03:31:41.651Z,54
2017-03-04T03:32:47.630Z,54
2017-03-04T03:33:53.611Z,54
2017-03-04T03:34:59.601Z,54
2017-03-04T03:36:05.583Z,54
2017-03-04T03:37:11.564Z,54
2017-03-04T03:38:16.452Z,54
2017-03-04T03:39:21.778Z,55
2017-03-04T03:40:27.098Z,55
2017-03-04T03:41:33.081Z,55
2017-03-04T03:42:39.068Z,55
2017-03-04T03:43:45.049Z,55
2017-03-04T03:44:51.032Z,55
2017-03-04T03:45:57.015Z,55
2017-03-04T03:47:02.997Z,55
2017-03-04T03:48:08.319Z,55
2017-03-04T03:49:14.304Z,55
2017-03-04T03:50:20.285Z,55
2017-03-04T03:51:26.290Z,55
2017-03-04T03:52:32.254Z,55
2017-03-04T03:53:38.236Z,55
2017-03-04T03:54:44.220Z,55
2017-03-04T03:55:50.209Z,55
2017-03-04T03:56:56.196Z,55
2017-03-04T03:58:02.180Z,55
2017-03-04T03:59:07.501Z,55
2017-03-04T04:00:13.486Z,54
2017-03-04T04:01:19.470Z,54
2017-03-04T04:02:25.452Z,54
2017-03-04T04:03:31.437Z,54
2017-03-04T04:04:37.419Z,54
2017-03-04T04:05:43.401Z,54
2017-03-04T04:06:49.387Z,54
2017-03-04T04:07:54.711Z,54
2017-03-04T04:09:00.696Z,54
2017-03-04T04:10:06.682Z,54
2017-03-04T04:11:12.667Z,54
2017-03-04T04:12:18.651Z,55
2017-03-04T04:13:24.632Z,55
2017-03-04T04:14:29.957Z,55
2017-03-04T04:15:35.941Z,55
2017-03-04T04:16:41.928Z,55
2017-03-04T04:17:47.910Z,55
2017-03-04T04:18:53.894Z,55
2017-03-04T04:19:59.209Z,55
2017-03-04T04:21:04.096Z,55
2017-03-04T04:22:10.079Z,55
2017-03-04T04:23:14.961Z,55
2017-03-04T04:24:20.945Z,55
2017-03-04T04:25:26.928Z,55
2017-03-04T04:26:32.914Z,55
2017-03-04T04:27:38.896Z,55
2017-03-04T04:28:44.886Z,55
2017-03-04T04:29:50.864Z,55
2017-03-04T04:30:56.847Z,55
2017-03-04T04:32:02.829Z,55
2017-03-04T04:33:08.820Z,55
2017-03-04T04:34:14.797Z,55
2017-03-04T04:35:20.782Z,55
2017-03-04T04:36:26.767Z,55
2017-03-04T04:37:32.757Z,55
2017-03-04T04:38:38.739Z,55
2017-03-04T04:39:44.058Z,55
2017-03-04T04:40:50.038Z,55
2017-03-04T04:41:56.024Z,55
2017-03-04T04:43:02.013Z,55
2017-03-04T04:44:07.332Z,55
2017-03-04T04:45:13.316Z,55
2017-03-04T04:46:19.297Z,55
2017-03-04T04:47:25.286Z,55
2017-03-04T04:48:31.268Z,55
2017-03-04T04:49:37.254Z,55
2017-03-04T04:50:42.574Z,55
2017-03-04T04:51:48.557Z,55
2017-03-04T04:52:54.543Z,55
2017-03-04T04:54:00.529Z,55
2017-03-04T04:55:06.515Z,55
2017-03-04T04:56:11.398Z,55
2017-03-04T04:57:17.381Z,55
2017-03-04T04:58:23.369Z,55
2017-03-04T04:59:29.350Z,55
2017-03-04T05:00:35.330Z,55
2017-03-04T05:01:41.314Z,55
2017-03-04T05:02:47.298Z,55
2017-03-04T05:03:53.285Z,55
2017-03-04T05:04:59.272Z,55
2017-03-04T05:06:05.250Z,55
2017-03-04T05:07:10.136Z,55
2017-03-04T05:08:16.118Z,55
2017-03-04T05:09:22.106Z,55
2017-03-04T05:10:28.090Z,55
2017-03-04T05:11:34.071Z,55
2017-03-04T05:12:40.052Z,55
2017-03-04T05:13:46.037Z,54
2017-03-04T05:14:52.023Z,54
2017-03-04T05:15:56.906Z,55
2017-03-04T05:17:02.890Z,55
2017-03-04T05:18:08.873Z,55
2017-03-04T05:19:14.855Z,55
2017-03-04T05:20:20.844Z,55
2017-03-04T05:21:26.827Z,55
2017-03-04T05:22:32.809Z,55
2017-03-04T05:23:38.800Z,55
2017-03-04T05:24:44.786Z,55
2017-03-04T05:25:50.769Z,55
2017-03-04T05:26:56.751Z,55
2017-03-04T05:28:02.730Z,55
2017-03-04T05:29:08.721Z,55
2017-03-04T05:30:14.705Z,55
2017-03-04T05:31:20.690Z,55
2017-03-04T05:32:26.674Z,55
2017-03-04T05:33:32.660Z,55
2017-03-04T05:34:38.643Z,55
2017-03-04T05:35:44.629Z,55
2017-03-04T05:36:49.523Z,55
2017-03-04T05:37:55.500Z,55
2017-03-04T05:39:01.483Z,55
2017-03-04T05:40:07.464Z,55
2017-03-04T05:41:13.451Z,55
2017-03-04T05:42:18.111Z,55
2017-03-04T05:43:24.094Z,55
2017-03-04T05:44:30.075Z,55
2017-03-04T05:45:36.066Z,55
2017-03-04T05:46:40.959Z,55
2017-03-04T05:47:46.925Z,55
2017-03-04T05:48:52.908Z,55
2017-03-04T05:49:58.897Z,55
2017-03-04T05:51:03.779Z,55
2017-03-04T05:52:09.763Z,55
2017-03-04T05:53:15.745Z,55
2017-03-04T05:54:21.731Z,55
2017-03-04T05:55:27.713Z,55
2017-03-04T05:56:33.703Z,55
2017-03-04T05:57:39.680Z,55
2017-03-04T05:58:45.668Z,55
2017-03-04T05:59:51.652Z,55
2017-03-04T06:00:57.641Z,55
2017-03-04T06:02:03.620Z,55
2017-03-04T06:03:09.606Z,55
2017-03-04T06:04:15.593Z,55
2017-03-04T06:05:21.586Z,55
2017-03-04T06:06:27.560Z,55
2017-03-04T06:07:33.548Z,55
2017-03-04T06:08:39.532Z,55
2017-03-04T06:09:45.513Z,55
2017-03-04T06:10:51.496Z,55
2017-03-04T06:11:57.483Z,55
2017-03-04T06:13:03.468Z,55
2017-03-04T06:14:08.352Z,55
2017-03-04T06:15:14.337Z,55
2017-03-04T06:16:20.320Z,55
2017-03-04T06:17:26.305Z,55
2017-03-04T06:18:32.285Z,55
2017-03-04T06:19:38.269Z,55
2017-03-04T06:20:44.253Z,55
2017-03-04T06:21:50.240Z,55
2017-03-04T06:22:56.224Z,55
2017-03-04T06:24:01.545Z,55
2017-03-04T06:25:06.867Z,55
2017-03-04T06:26:12.851Z,55
2017-03-04T06:27:18.834Z,55
2017-03-04T06:28:24.813Z,55
2017-03-04T06:29:30.797Z,55
2017-03-04T06:30:36.783Z,55
2017-03-04T06:31:42.765Z,55
2017-03-04T06:32:49.953Z,55
2017-03-04T06:33:55.938Z,55
2017-03-04T06:35:22.622Z,55
2017-03-04T06:36:27.797Z,55
2017-03-04T06:37:33.933Z,55
2017-03-04T06:38:39.918Z,55
2017-03-04T06:39:45.901Z,55
2017-03-04T06:40:51.883Z,55
2017-03-04T06:41:57.868Z,55
2017-03-04T06:43:03.854Z,55
2017-03-04T06:44:09.856Z,55
2017-03-04T06:45:16.191Z,55
2017-03-04T06:46:21.697Z,55
2017-03-04T06:47:27.541Z,55
2017-03-04T06:48:32.597Z,55
2017-03-04T06:49:36.792Z,54
2017-03-04T06:50:42.820Z,54
2017-03-04T06:51:50.557Z,54
2017-03-04T06:53:03.747Z,54
2017-03-04T06:54:21.417Z,54
2017-03-04T06:55:40.197Z,54
2017-03-04T06:57:00.998Z,54
2017-03-04T06:58:22.699Z,54
2017-03-04T06:59:29.778Z,54
2017-03-04T07:00:35.758Z,54
2017-03-04T07:01:41.744Z,54
2017-03-04T07:02:47.729Z,54
2017-03-04T07:03:53.710Z,54
2017-03-04T07:04:59.701Z,54
2017-03-04T07:06:04.585Z,54
2017-03-04T07:07:10.572Z,54
2017-03-04T07:08:16.561Z,54
2017-03-04T07:09:22.561Z,54
2017-03-04T07:10:28.545Z,54
2017-03-04T07:11:34.526Z,54
2017-03-04T07:12:40.519Z,54
2017-03-04T07:13:46.559Z,54
2017-03-04T07:14:51.889Z,54
2017-03-04T07:15:57.231Z,54
2017-03-04T07:17:03.278Z,54
2017-03-04T07:18:09.190Z,54
2017-03-04T07:19:15.305Z,54
2017-03-04T07:20:21.185Z,54
2017-03-04T07:21:27.190Z,54
2017-03-04T07:22:33.204Z,54
2017-03-04T07:23:39.183Z,54
2017-03-04T07:24:44.081Z,53
2017-03-04T07:25:49.402Z,53
2017-03-04T07:26:55.396Z,53
2017-03-04T07:28:01.377Z,53
2017-03-04T07:29:06.694Z,53
2017-03-04T07:30:12.021Z,53
2017-03-04T07:31:18.083Z,53
2017-03-04T07:32:24.072Z,53
2017-03-04T07:33:30.057Z,53
2017-03-04T07:34:36.045Z,53
2017-03-04T07:35:40.924Z,53
2017-03-04T07:36:46.907Z,53
2017-03-04T07:37:52.893Z,53
2017-03-04T07:38:58.872Z,53
2017-03-04T07:40:04.857Z,53
2017-03-04T07:41:10.844Z,53
2017-03-04T07:42:16.829Z,53
2017-03-04T07:43:21.052Z,53
2017-03-04T07:44:27.038Z,53
2017-03-04T07:45:33.102Z,53
2017-03-04T07:46:39.089Z,53
2017-03-04T07:47:45.082Z,53
2017-03-04T07:48:51.066Z,53
2017-03-04T07:49:57.052Z,53
2017-03-04T07:51:03.038Z,53
2017-03-04T07:52:09.024Z,53
2017-03-04T07:53:14.342Z,53
2017-03-04T07:54:20.327Z,53
2017-03-04T07:55:26.411Z,53
2017-03-04T07:56:31.294Z,53
2017-03-04T07:57:36.174Z,53
2017-03-04T07:58:42.158Z,53
2017-03-04T07:59:48.149Z,53
2017-03-04T08:00:53.032Z,53
2017-03-04T08:01:59.017Z,52
2017-03-04T08:03:05.002Z,52
2017-03-04T08:04:10.985Z,52
2017-03-04T08:05:16.969Z,52
2017-03-04T08:06:21.189Z,52
2017-03-04T08:07:27.170Z,52
2017-03-04T08:08:33.172Z,53
2017-03-04T08:09:39.156Z,53
2017-03-04T08:10:45.143Z,52
2017-03-04T08:11:51.126Z,53
2017-03-04T08:12:57.111Z,53
2017-03-04T08:14:03.095Z,53
2017-03-04T08:15:09.084Z,53
2017-03-04T08:16:14.422Z,51
2017-03-04T08:17:19.728Z,51
2017-03-04T08:18:25.715Z,51
2017-03-04T08:19:31.695Z,51
2017-03-04T08:20:38.158Z,51
2017-03-04T08:21:43.713Z,51
2017-03-04T08:22:49.704Z,51
2017-03-04T08:23:55.055Z,51
2017-03-04T08:25:01.047Z,51
2017-03-04T08:26:07.080Z,51
2017-03-04T08:27:13.074Z,51
2017-03-04T08:28:19.067Z,51
2017-03-04T08:29:24.398Z,51
2017-03-04T08:30:30.385Z,51
2017-03-04T08:31:36.371Z,51
2017-03-04T08:32:42.354Z,51
2017-03-04T08:33:48.475Z,51
2017-03-04T08:34:54.349Z,52
2017-03-04T08:36:00.331Z,52
2017-03-04T08:37:06.314Z,52
2017-03-04T08:38:12.425Z,52
2017-03-04T08:39:18.413Z,52
2017-03-04T08:40:23.296Z,52
2017-03-04T08:41:29.279Z,52
2017-03-04T08:42:35.266Z,52
2017-03-04T08:43:41.252Z,52
2017-03-04T08:44:47.226Z,52
2017-03-04T08:45:53.208Z,52
2017-03-04T08:46:59.453Z,51
2017-03-04T08:48:05.436Z,51
2017-03-04T08:49:11.423Z,52
2017-03-04T08:50:15.645Z,52
2017-03-04T08:51:21.633Z,52
2017-03-04T08:52:27.610Z,51
2017-03-04T08:53:33.595Z,51
2017-03-04T08:54:39.578Z,52
2017-03-04T08:55:45.564Z,52
2017-03-04T08:56:51.547Z,52
2017-03-04T08:57:57.534Z,51
2017-03-04T08:59:03.516Z,51
2017-03-04T09:00:08.837Z,51
2017-03-04T09:01:14.820Z,51
2017-03-04T09:02:20.169Z,51
2017-03-04T09:03:26.150Z,51
2017-03-04T09:04:32.134Z,51
2017-03-04T09:05:38.121Z,51
2017-03-04T09:06:43.437Z,51
2017-03-04T09:07:49.418Z,51
2017-03-04T09:08:54.743Z,51
2017-03-04T09:10:00.728Z,51
2017-03-04T09:11:06.712Z,51
2017-03-04T09:12:11.597Z,51
2017-03-04T09:13:17.579Z,51
2017-03-04T09:14:23.562Z,51
2017-03-04T09:15:29.549Z,51
2017-03-04T09:16:35.767Z,51
2017-03-04T09:17:42.165Z,50
2017-03-04T09:18:47.790Z,50
2017-03-04T09:19:53.771Z,50
2017-03-04T09:20:59.760Z,50
2017-03-04T09:22:05.743Z,49
2017-03-04T09:23:11.729Z,49
2017-03-04T09:24:17.711Z,48
2017-03-04T09:25:23.692Z,49
2017-03-04T09:26:29.686Z,49
2017-03-04T09:27:35.677Z,48
2017-03-04T09:28:41.653Z,48
2017-03-04T09:29:47.640Z,48
2017-03-04T09:30:52.532Z,48
2017-03-04T09:31:58.512Z,47
2017-03-04T09:33:04.500Z,47
2017-03-04T09:34:10.483Z,47
2017-03-04T09:35:16.468Z,47
2017-03-04T09:36:22.455Z,45
2017-03-04T09:37:27.342Z,44
2017-03-04T09:38:33.324Z,43
2017-03-04T09:39:39.313Z,42
2017-03-04T09:40:44.634Z,41
2017-03-04T09:41:50.620Z,41
2017-03-04T09:42:55.945Z,42
2017-03-04T09:44:01.930Z,41
2017-03-04T09:45:07.916Z,40
2017-03-04T09:46:13.900Z,40
2017-03-04T09:47:19.886Z,40
2017-03-04T09:48:25.878Z,40
2017-03-04T09:49:31.865Z,40
2017-03-04T09:50:37.851Z,40
2017-03-04T09:51:43.836Z,38
2017-03-04T09:52:49.823Z,38
2017-03-04T09:53:55.805Z,38
2017-03-04T09:55:01.791Z,38
2017-03-04T09:56:07.778Z,37
2017-03-04T09:57:13.769Z,36
2017-03-04T09:58:19.093Z,36
2017-03-04T09:59:25.078Z,36
2017-03-04T10:00:31.070Z,36
2017-03-04T10:01:35.950Z,36
2017-03-04T10:02:41.943Z,36
2017-03-04T10:03:46.824Z,36
2017-03-04T10:04:52.807Z,37
2017-03-04T10:05:58.791Z,36
2017-03-04T10:07:04.779Z,36
2017-03-04T10:08:10.767Z,36
2017-03-04T10:09:16.754Z,34
2017-03-04T10:10:20.983Z,36
2017-03-04T10:11:26.975Z,36
2017-03-04T10:12:32.953Z,36
2017-03-04T10:13:38.935Z,36
2017-03-04T10:14:44.926Z,36
2017-03-04T10:15:50.906Z,36
2017-03-04T10:16:56.231Z,35
2017-03-04T10:18:02.227Z,34
2017-03-04T10:19:08.212Z,36
2017-03-04T10:20:14.192Z,36
2017-03-04T10:21:20.180Z,36
2017-03-04T10:22:26.164Z,34
2017-03-04T10:23:31.487Z,31
2017-03-04T10:24:37.472Z,31
2017-03-04T10:25:42.800Z,25
2017-03-04T10:26:48.786Z,25
2017-03-04T10:27:54.768Z,25
2017-03-04T10:29:00.755Z,28
2017-03-04T10:30:06.742Z,27
2017-03-04T10:31:12.728Z,25
2017-03-04T10:32:17.611Z,24
2017-03-04T10:33:23.605Z,24
2017-03-04T10:34:29.585Z,24
2017-03-04T10:35:35.569Z,24
2017-03-04T10:36:40.887Z,24
2017-03-04T10:37:47.081Z,25
2017-03-04T10:38:53.064Z,25
2017-03-04T10:39:59.047Z,25
2017-03-04T10:41:05.037Z,25
2017-03-04T10:42:11.028Z,24
2017-03-04T10:43:17.038Z,24
2017-03-04T10:44:22.998Z,24
2017-03-04T10:45:28.991Z,24
2017-03-04T10:46:34.983Z,26
2017-03-04T10:47:40.964Z,24
2017-03-04T10:48:46.949Z,24
2017-03-04T10:49:52.944Z,24
2017-03-04T10:50:58.923Z,24
2017-03-04T10:52:04.913Z,24
2017-03-04T10:53:10.235Z,24
2017-03-04T10:54:16.222Z,24
2017-03-04T10:55:22.205Z,24
2017-03-04T10:56:28.192Z,24
2017-03-04T10:57:33.078Z,24
2017-03-04T10:58:39.064Z,24
2017-03-04T10:59:44.390Z,24
2017-03-04T11:00:50.374Z,24
2017-03-04T11:01:56.358Z,24
2017-03-04T11:03:02.346Z,24
2017-03-04T11:04:08.330Z,24
2017-03-04T11:05:14.318Z,24
2017-03-04T11:06:20.303Z,24
2017-03-04T11:07:26.288Z,24
2017-03-04T11:08:32.274Z,24
2017-03-04T11:09:38.257Z,24
2017-03-04T11:10:44.252Z,24
2017-03-04T11:11:50.236Z,24
2017-03-04T11:12:56.222Z,24
2017-03-04T11:14:01.108Z,24
2017-03-04T11:15:07.094Z,24
2017-03-04T11:16:13.079Z,24
2017-03-04T11:17:19.065Z,24
2017-03-04T11:18:25.056Z,24
2017-03-04T11:19:31.041Z,24
2017-03-04T11:20:37.028Z,24
2017-03-04T11:21:43.012Z,24
2017-03-04T11:22:48.996Z,24
2017-03-04T11:23:54.985Z,24
2017-03-04T11:25:00.969Z,24
2017-03-04T11:26:06.958Z,24
2017-03-04T11:27:11.837Z,24
2017-03-04T11:28:17.827Z,24
2017-03-04T11:29:23.812Z,24
2017-03-04T11:30:29.799Z,24
2017-03-04T11:31:35.785Z,24
2017-03-04T11:32:41.773Z,24
2017-03-04T11:33:47.755Z,24
2017-03-04T11:34:53.738Z,24
2017-03-04T11:35:59.729Z,24
2017-03-04T11:37:05.716Z,24
2017-03-04T11:38:11.706Z,24
2017-03-04T11:39:17.690Z,24
2017-03-04T11:40:23.675Z,24
2017-03-04T11:41:29.661Z,24
2017-03-04T11:42:35.647Z,24
2017-03-04T11:43:41.630Z,24
2017-03-04T11:44:47.629Z,24
2017-03-04T11:45:53.609Z,24
2017-03-04T11:46:59.598Z,24
2017-03-04T11:48:04.477Z,24
2017-03-04T11:49:09.803Z,24
2017-03-04T11:50:15.786Z,24
2017-03-04T11:51:21.773Z,24
2017-03-04T11:52:27.093Z,24
2017-03-04T11:53:33.082Z,24
2017-03-04T11:54:39.068Z,24
2017-03-04T11:55:45.047Z,24
2017-03-04T11:56:51.035Z,24
2017-03-04T11:57:57.024Z,24
2017-03-04T11:59:03.007Z,24
2017-03-04T12:00:08.991Z,24
2017-03-04T12:01:14.977Z,24
2017-03-04T12:02:19.860Z,24
2017-03-04T12:03:25.854Z,24
2017-03-04T12:04:31.830Z,24
2017-03-04T12:05:37.824Z,24
2017-03-04T12:06:43.804Z,24
2017-03-04T12:07:49.787Z,24
2017-03-04T12:08:55.775Z,24
2017-03-04T12:10:01.766Z,24
2017-03-04T12:11:06.650Z,24
2017-03-04T12:12:12.633Z,24
2017-03-04T12:13:18.624Z,24
2017-03-04T12:14:24.605Z,24
2017-03-04T12:15:30.590Z,24
2017-03-04T12:16:36.576Z,24
2017-03-04T12:17:42.568Z,24
2017-03-04T12:18:48.552Z,24
2017-03-04T12:19:53.874Z,24
2017-03-04T12:20:59.857Z,24
2017-03-04T12:22:05.846Z,24
2017-03-04T12:23:11.833Z,24
2017-03-04T12:24:17.818Z,24
2017-03-04T12:25:23.801Z,24
2017-03-04T12:26:29.785Z,24
2017-03-04T12:27:35.768Z,24
2017-03-04T12:28:41.756Z,24
2017-03-04T12:29:47.745Z,24
2017-03-04T12:30:53.732Z,24
2017-03-04T12:31:59.717Z,24
2017-03-04T12:33:05.041Z,24
2017-03-04T12:34:11.026Z,24
2017-03-04T12:35:16.352Z,24
2017-03-04T12:36:22.345Z,24
2017-03-04T12:37:27.225Z,24
2017-03-04T12:38:33.213Z,24
2017-03-04T12:39:39.208Z,24
2017-03-04T12:40:44.531Z,24
2017-03-04T12:41:50.511Z,24
2017-03-04T12:42:56.499Z,24
2017-03-04T12:44:02.484Z,24
2017-03-04T12:45:08.471Z,24
2017-03-04T12:46:14.455Z,24
2017-03-04T12:47:20.440Z,24
2017-03-04T12:48:26.433Z,24
2017-03-04T12:49:32.415Z,24
2017-03-04T12:50:38.401Z,24
2017-03-04T12:51:44.391Z,23
2017-03-04T12:52:50.373Z,23
2017-03-04T12:53:56.361Z,23
2017-03-04T12:55:02.636Z,24
2017-03-04T12:56:08.536Z,24
2017-03-04T12:57:14.520Z,24
2017-03-04T12:58:20.504Z,24
2017-03-04T12:59:26.814Z,24
2017-03-04T13:00:32.157Z,24
2017-03-04T13:01:36.206Z,24
2017-03-04T13:02:40.280Z,24
2017-03-04T13:03:45.572Z,24
2017-03-04T13:04:53.442Z,24
2017-03-04T13:06:08.709Z,24
2017-03-04T13:07:35.562Z,24
2017-03-04T13:08:49.726Z,24
2017-03-04T13:10:00.301Z,24
2017-03-04T13:11:12.928Z,24
2017-03-04T13:12:30.897Z,24
2017-03-04T13:13:41.654Z,24
2017-03-04T13:15:04.015Z,24
2017-03-04T13:16:17.355Z,24
2017-03-04T13:17:32.948Z,24
2017-03-04T13:18:44.061Z,24
2017-03-04T13:19:53.372Z,24
2017-03-04T13:21:09.044Z,24
2017-03-04T13:22:26.418Z,24
2017-03-04T13:23:44.425Z,27
2017-03-04T13:25:05.769Z,28
2017-03-04T13:26:25.945Z,30
2017-03-04T13:27:36.144Z,30
2017-03-04T13:28:54.690Z,34
2017-03-04T13:30:14.647Z,35
2017-03-04T13:31:28.334Z,35
2017-03-04T13:32:41.664Z,35
2017-03-04T13:33:54.224Z,35
2017-03-04T13:35:04.175Z,35
2017-03-04T13:36:19.382Z,36
2017-03-04T13:37:33.877Z,36
2017-03-04T13:38:50.492Z,36
2017-03-04T13:40:08.273Z,37
2017-03-04T13:41:23.572Z,37
2017-03-04T13:42:36.382Z,37
2017-03-04T13:43:47.963Z,38
2017-03-04T13:45:02.747Z,38
2017-03-04T13:46:14.475Z,38
2017-03-04T13:47:33.158Z,38
2017-03-04T13:48:45.831Z,38
2017-03-04T13:49:56.763Z,38
2017-03-04T13:51:13.518Z,37
2017-03-04T13:52:26.500Z,38
2017-03-04T13:53:48.387Z,38
2017-03-04T13:55:02.804Z,38
2017-03-04T13:56:21.564Z,38
2017-03-04T13:57:39.863Z,38
2017-03-04T13:59:05.385Z,39
2017-03-04T14:00:19.597Z,39
2017-03-04T14:01:32.127Z,40
2017-03-04T14:02:44.110Z,40
2017-03-04T14:03:50.886Z,41
2017-03-04T14:04:59.618Z,41
2017-03-04T14:06:13.483Z,41
2017-03-04T14:07:26.165Z,41
2017-03-04T14:08:35.712Z,41
2017-03-04T14:09:49.131Z,41
2017-03-04T14:10:54.686Z,42
2017-03-04T14:11:59.932Z,42
2017-03-04T14:14:17.655Z,42
2017-03-04T14:15:23.588Z,41
2017-03-04T14:16:29.629Z,42
2017-03-04T14:17:35.723Z,42
2017-03-04T14:18:41.780Z,42
2017-03-04T14:19:47.865Z,42
2017-03-04T14:20:53.888Z,42
2017-03-04T14:22:00.027Z,42
2017-03-04T14:23:06.077Z,42
2017-03-04T14:24:12.296Z,43
2017-03-04T14:25:18.442Z,43
2017-03-04T14:26:24.662Z,43
2017-03-04T14:27:31.271Z,42
2017-03-04T14:28:37.357Z,43
2017-03-04T14:29:43.483Z,42
2017-03-04T14:30:50.006Z,43
2017-03-04T14:31:56.387Z,43
2017-03-04T14:33:03.126Z,43
2017-03-04T14:34:09.179Z,43
2017-03-04T14:35:15.736Z,42
2017-03-04T14:36:20.718Z,42
2017-03-04T14:37:27.186Z,42
2017-03-04T14:38:34.667Z,42
2017-03-04T14:39:40.812Z,40
2017-03-04T14:40:48.066Z,40
2017-03-04T14:41:53.651Z,40
2017-03-04T14:42:59.755Z,40
2017-03-04T14:44:05.548Z,41
2017-03-04T14:45:10.987Z,41
2017-03-04T14:46:16.980Z,41
2017-03-04T14:47:22.966Z,41
2017-03-04T14:48:28.286Z,41
2017-03-04T14:49:35.508Z,41
2017-03-04T14:50:42.716Z,41
2017-03-04T14:51:51.457Z,41
2017-03-04T14:53:05.127Z,41
2017-03-04T14:54:09.955Z,41
2017-03-04T14:55:21.058Z,41
2017-03-04T14:56:26.523Z,41
2017-03-04T14:57:33.864Z,40
2017-03-04T14:58:39.455Z,41
2017-03-04T14:59:45.363Z,41
2017-03-04T15:00:57.802Z,41
2017-03-04T15:02:03.748Z,41
2017-03-04T15:03:16.667Z,41
2017-03-04T15:04:32.232Z,41
2017-03-04T15:05:53.234Z,41
2017-03-04T15:07:04.327Z,42
2017-03-04T15:08:17.892Z,42
2017-03-04T15:09:39.499Z,41
2017-03-04T15:10:50.810Z,42
2017-03-04T15:12:02.463Z,42
2017-03-04T15:13:13.175Z,42
2017-03-04T15:14:25.241Z,42
2017-03-04T15:15:35.195Z,42
2017-03-04T15:16:42.384Z,42
2017-03-04T15:18:02.498Z,43
2017-03-04T15:19:16.453Z,43
2017-03-04T15:20:35.587Z,42
2017-03-04T15:22:04.100Z,43
2017-03-04T15:23:18.014Z,43
2017-03-04T15:24:35.523Z,44
2017-03-04T15:25:54.579Z,44
2017-03-04T15:27:14.896Z,45
2017-03-04T15:28:30.955Z,45
2017-03-04T15:29:47.632Z,45
2017-03-04T15:31:01.643Z,45
2017-03-04T15:32:18.152Z,45
2017-03-04T15:35:01.401Z,45
2017-03-04T15:36:18.054Z,45
2017-03-04T15:37:34.573Z,45
2017-03-04T15:38:46.691Z,45
2017-03-04T15:40:08.543Z,45
2017-03-04T15:41:23.087Z,45
2017-03-04T15:43:59.940Z,45
2017-03-04T15:45:18.100Z,46
2017-03-04T15:46:34.533Z,46
2017-03-04T15:47:54.999Z,46
2017-03-04T15:49:09.646Z,46
2017-03-04T15:50:33.466Z,46
2017-03-04T15:51:55.161Z,46
2017-03-04T15:53:08.931Z,46
2017-03-04T15:54:24.472Z,46
2017-03-04T15:55:42.411Z,46
2017-03-04T15:57:04.536Z,47
2017-03-04T15:58:20.973Z,47
2017-03-04T15:59:42.140Z,47
2017-03-04T16:01:04.924Z,47